Terminal Aerodrome Forecast
Issued by NWS

Home | Current Version | Previous Version | Text Only | Print | Product List | Glossary On
Versions: 1 2 3 4 5 6 7 8 9 10 11 12 13 14 15 16 17 18 19 20 21
000
FTUS42 KILM 050526
TAFCRE
TAF
KCRE 050526Z 0506/0606 36003KT P6SM BKN250
     FM050800 03005KT 5SM BR SCT030 SCT250
     FM051000 03005KT 6SM BR SCT012 SCT030
      TEMPO 0511/0513 3SM BR BKN012
     FM051500 05010KT P6SM BKN040
     FM051900 09010KT P6SM BKN060
     FM052330 06005KT P6SM BKN120=

USA.gov is the U.S. government's official web portal to all federal, state and local government web resources and services.